West Pointe, OH

5:14 AM EST on December 04, 2016 (GMT -0500)
Oregon, Ohio. | | Change Station

Elev 610 ft 41.63 °N, 83.45 °W | Updated 139 days ago

Mostly Cloudy
Mostly Cloudy
77.4 °F
Feels Like 79 °F
N
5.0
Wind Variable Wind from NE
Gusts 21.0 mph

Today
High -- | Low -- °F
--% Chance of Precip.
Yesterday
High -- | Low -- °F
Precip. -- in
Pressure 30.29 in
Visibility 8.0 miles
Clouds Mostly Cloudy 3300 ft
Heat Index 79 °F
Dew Point 71.8 °F
Humidity 83%
Rainfall in
Snow Depth Not available.
7:44 AM 5:03 PM
Waxing Crescent, 21% visible
METAR KTDZ 040953Z AUTO 19004KT 8SM BKN033 01/M02 A3027 RMK AO2 SLP257 T00111017
Pressure 30.29 in
Visibility 8.0 miles
Clouds Mostly Cloudy 3300 ft
Heat Index 79 °F
Dew Point 71.8 °F
Humidity 83%
Rainfall in
Snow Depth Not available.
7:44 AM 5:03 PM
Waxing Crescent, 21% visible
METAR KTDZ 040953Z AUTO 19004KT 8SM BKN033 01/M02 A3027 RMK AO2 SLP257 T00111017

10-Day Weather Forecast

Almanac

Astronomy

Dec. 04, 2016 Rise Set
Actual Time
Civil Twilight
Nautical Twilight
Astronomical Twilight
Moon
Length of Visible Light
Length of Day
Tomorrow will be .
, % of the Moon is Illuminated

Today's Extremes

State Highs State Lows

Community

WunderPhotos

Upload Photos

1,955,591 photos uploaded!

WunderBlog® & News

Nearby

Air Quality

  Air Quality AQ Index Pollutant
Not available.

Snow Depth

Station Depth Elevation

Earthquake Activity

City Distance Mag. Time & Date
Minimum magnitude displayed is 2.5.

Coastal Water Temperatures

Place Temperature

Stations

Nearby Weather Stations

Station Location Temp. Windchill Dew Point Humidity Wind Precip. Elev Updated Type
                   

Watches & Warnings

There are currently no watches in effect.